createdAt,value
2023-04-22T00:01:09.026Z,30.73
2023-04-22T00:03:37.357Z,30.60
2023-04-22T00:06:05.924Z,31.58
2023-04-22T00:08:35.569Z,29.75
2023-04-22T00:11:03.930Z,27.13
2023-04-22T00:13:32.664Z,24.83
2023-04-22T00:16:01.095Z,25.00
2023-04-22T00:18:29.374Z,24.65
2023-04-22T00:21:00.931Z,25.33
2023-04-22T00:23:29.211Z,24.95
2023-04-22T00:25:58.818Z,27.83
2023-04-22T00:28:27.031Z,27.90
2023-04-22T00:30:55.397Z,28.40
2023-04-22T00:33:23.652Z,28.43
2023-04-22T00:35:52.223Z,28.20
2023-04-22T00:38:20.399Z,26.43
2023-04-22T00:40:48.757Z,25.07
2023-04-22T00:43:18.963Z,27.90
2023-04-22T00:45:48.538Z,20.13
2023-04-22T00:48:16.816Z,23.37
2023-04-22T00:50:45.056Z,27.17
2023-04-22T00:53:13.653Z,23.43
2023-04-22T00:55:42.146Z,28.47
2023-04-22T00:58:11.655Z,26.20
2023-04-22T01:00:41.325Z,24.83
2023-04-22T01:03:11.235Z,25.70
2023-04-22T01:05:40.362Z,27.57
2023-04-22T01:08:08.698Z,26.93
2023-04-22T01:10:37.300Z,24.17
2023-04-22T01:13:06.338Z,26.30
2023-04-22T01:15:34.751Z,21.80
2023-04-22T01:18:05.371Z,29.33
2023-04-22T01:20:34.159Z,23.73
2023-04-22T01:23:04.993Z,22.00
2023-04-22T01:25:34.969Z,25.37
2023-04-22T01:28:04.405Z,25.27
2023-04-22T01:30:33.370Z,23.80
2023-04-22T01:33:02.098Z,23.57
2023-04-22T01:35:37.006Z,24.00
2023-04-22T01:38:05.779Z,29.20
2023-04-22T01:40:35.786Z,26.30
2023-04-22T01:43:04.473Z,25.10
2023-04-22T01:45:32.833Z,28.50
2023-04-22T01:48:01.095Z,25.63
2023-04-22T01:50:29.402Z,26.47
2023-04-22T01:52:58.391Z,26.27
2023-04-22T01:55:27.166Z,29.17
2023-04-22T01:57:56.777Z,29.63
2023-04-22T02:00:25.129Z,25.40
2023-04-22T02:02:53.745Z,23.07
2023-04-22T02:05:22.027Z,25.77
2023-04-22T02:07:53.559Z,25.27
2023-04-22T02:10:24.138Z,25.27
2023-04-22T02:12:52.461Z,31.67
2023-04-22T02:15:22.934Z,29.07
2023-04-22T02:17:54.698Z,27.40
2023-04-22T02:20:23.112Z,26.90
2023-04-22T02:22:51.947Z,28.20
2023-04-22T02:25:21.513Z,27.33
2023-04-22T02:27:51.581Z,23.87
2023-04-22T02:30:22.309Z,22.57
2023-04-22T02:32:50.652Z,24.40
2023-04-22T02:35:20.680Z,22.90
2023-04-22T02:37:52.045Z,24.67
2023-04-22T02:40:20.332Z,22.10
2023-04-22T02:42:49.324Z,24.63
2023-04-22T02:45:17.764Z,26.00
2023-04-22T02:47:48.069Z,25.23
2023-04-22T02:50:16.868Z,25.17
2023-04-22T02:52:45.180Z,29.03
2023-04-22T02:55:13.393Z,23.37
2023-04-22T02:57:41.755Z,24.97
2023-04-22T03:00:11.550Z,22.77
2023-04-22T03:02:40.075Z,23.50
2023-04-22T03:05:13.630Z,25.40
2023-04-22T03:07:42.023Z,27.67
2023-04-22T03:10:10.936Z,25.10
2023-04-22T03:12:39.147Z,24.00
2023-04-22T03:15:08.449Z,24.40
2023-04-22T03:17:37.171Z,27.53
2023-04-22T03:20:11.738Z,26.27
2023-04-22T03:22:41.493Z,28.37
2023-04-22T03:25:12.861Z,29.20
2023-04-22T03:27:42.314Z,33.70
2023-04-22T03:30:12.311Z,30.43
2023-04-22T03:32:40.609Z,29.83
2023-04-22T03:35:19.286Z,28.07
2023-04-22T03:37:51.417Z,28.57
2023-04-22T03:40:25.167Z,29.03
2023-04-22T03:42:53.461Z,26.47
2023-04-22T03:45:23.080Z,33.47
2023-04-22T03:48:03.717Z,30.77
2023-04-22T03:50:40.202Z,25.83
2023-04-22T03:53:10.630Z,29.57
2023-04-22T03:55:39.858Z,29.30
2023-04-22T03:58:08.195Z,24.87
2023-04-22T04:00:36.433Z,32.80
2023-04-22T04:03:12.025Z,28.50
2023-04-22T04:05:40.754Z,22.87
2023-04-22T04:08:11.832Z,26.33
2023-04-22T04:10:40.123Z,28.83
2023-04-22T04:13:09.293Z,24.87
2023-04-22T04:15:50.278Z,26.77
2023-04-22T04:18:21.656Z,28.40
2023-04-22T04:20:50.857Z,25.63
2023-04-22T04:23:20.771Z,24.70
2023-04-22T04:25:49.908Z,24.77
2023-04-22T04:28:18.971Z,27.40
2023-04-22T04:30:47.239Z,28.50
2023-04-22T04:33:17.908Z,32.90
2023-04-22T04:35:48.146Z,29.03
2023-04-22T04:38:23.023Z,31.65
2023-04-22T04:40:54.500Z,30.27
2023-04-22T04:43:27.077Z,31.47
2023-04-22T04:46:03.155Z,32.53
2023-04-22T04:48:36.919Z,29.63
2023-04-22T04:51:10.246Z,30.93
2023-04-22T04:53:45.364Z,30.03
2023-04-22T04:56:14.001Z,31.60
2023-04-22T04:58:42.668Z,28.57
2023-04-22T05:01:19.393Z,28.93
2023-04-22T05:03:48.960Z,33.00
2023-04-22T05:06:19.316Z,26.30
2023-04-22T05:08:52.896Z,27.60
2023-04-22T05:11:22.102Z,29.57
2023-04-22T05:13:52.631Z,30.85
2023-04-22T05:16:27.804Z,23.47
2023-04-22T05:18:56.623Z,22.53
2023-04-22T05:21:25.351Z,24.98
2023-04-22T05:23:54.904Z,24.48
2023-04-22T05:26:23.237Z,17.83
2023-04-22T05:28:52.268Z,18.40
2023-04-22T05:31:21.460Z,27.08
2023-04-22T05:33:49.726Z,20.73
2023-04-22T05:36:18.160Z,25.45
2023-04-22T05:38:48.509Z,16.23
2023-04-22T05:41:18.410Z,16.60
2023-04-22T05:43:47.168Z,20.42
2023-04-22T05:46:18.676Z,13.27
2023-04-22T05:48:48.866Z,15.00
2023-04-22T05:51:35.697Z,15.20
2023-04-22T05:54:04.362Z,13.10
2023-04-22T05:56:34.102Z,14.63
2023-04-22T05:59:02.447Z,13.70
2023-04-22T06:01:30.764Z,14.13
2023-04-22T06:04:06.914Z,15.13
2023-04-22T06:06:35.541Z,13.60
2023-04-22T06:09:04.191Z,20.27
2023-04-22T06:11:33.851Z,16.25
2023-04-22T06:14:02.122Z,17.05
2023-04-22T06:16:31.119Z,13.68
2023-04-22T06:18:59.612Z,12.68
2023-04-22T06:21:28.649Z,14.32
2023-04-22T06:23:58.160Z,17.65
2023-04-22T06:26:26.580Z,14.05
2023-04-22T06:28:56.162Z,18.13
2023-04-22T06:31:25.402Z,17.73
2023-04-22T06:33:53.628Z,12.60
2023-04-22T06:36:22.815Z,13.70
2023-04-22T06:38:57.663Z,14.80
2023-04-22T06:41:39.049Z,25.08
2023-04-22T06:44:25.388Z,14.02
2023-04-22T06:47:14.419Z,14.80
2023-04-22T06:50:03.534Z,14.05
2023-04-22T06:52:37.928Z,13.27
2023-04-22T06:55:06.703Z,20.40
2023-04-22T06:57:35.141Z,11.20
2023-04-22T07:00:05.362Z,12.50
2023-04-22T07:02:36.098Z,15.20
2023-04-22T07:05:04.871Z,15.88
2023-04-22T07:07:33.186Z,12.13
2023-04-22T07:10:01.388Z,12.07
2023-04-22T07:12:36.333Z,14.43
2023-04-22T07:15:06.888Z,12.20
2023-04-22T07:17:35.396Z,16.13
2023-04-22T07:20:03.857Z,9.45
2023-04-22T07:22:32.094Z,10.52
2023-04-22T07:25:00.309Z,14.20
2023-04-22T07:27:28.486Z,13.43
2023-04-22T07:29:56.617Z,11.05
2023-04-22T07:32:26.266Z,12.07
2023-04-22T07:34:54.587Z,8.52
2023-04-22T07:37:23.327Z,10.35
2023-04-22T07:39:51.560Z,8.43
2023-04-22T07:42:20.606Z,6.55
2023-04-22T07:44:48.896Z,8.10
2023-04-22T07:47:19.567Z,9.75
2023-04-22T07:49:52.222Z,6.05
2023-04-22T07:52:21.118Z,8.20
2023-04-22T07:54:49.337Z,8.27
2023-04-22T07:57:17.688Z,8.77
2023-04-22T07:59:45.859Z,8.35
2023-04-22T08:02:14.276Z,4.85
2023-04-22T08:04:42.770Z,6.88
2023-04-22T08:07:30.904Z,5.47
2023-04-22T08:10:00.894Z,4.88
2023-04-22T08:12:29.107Z,3.85
2023-04-22T08:14:58.217Z,8.30
2023-04-22T08:17:28.615Z,5.35
2023-04-22T08:20:07.917Z,6.22
2023-04-22T08:22:38.928Z,7.82
2023-04-22T08:25:10.903Z,5.63
2023-04-22T08:27:40.432Z,5.65
2023-04-22T08:30:14.710Z,7.28
2023-04-22T08:32:43.043Z,8.95
2023-04-22T08:35:12.619Z,6.00
2023-04-22T08:37:44.660Z,7.15
2023-04-22T08:40:13.197Z,8.63
2023-04-22T08:42:41.950Z,10.90
2023-04-22T08:45:10.984Z,12.38
2023-04-22T08:47:40.690Z,17.55
2023-04-22T08:50:10.429Z,5.20
2023-04-22T08:52:39.106Z,7.43
2023-04-22T08:55:09.856Z,6.97
2023-04-22T08:57:40.861Z,6.65
2023-04-22T09:00:10.088Z,9.35
2023-04-22T09:02:39.455Z,6.03
2023-04-22T09:05:10.393Z,9.15
2023-04-22T09:07:41.008Z,7.60
2023-04-22T09:10:12.071Z,5.15
2023-04-22T09:12:40.970Z,4.05
2023-04-22T09:15:10.066Z,3.08
2023-04-22T09:17:39.296Z,2.88
2023-04-22T09:20:12.300Z,4.20
2023-04-22T09:22:42.920Z,7.93
2023-04-22T09:25:19.123Z,5.07
2023-04-22T09:27:51.746Z,6.20
2023-04-22T09:30:23.992Z,4.70
2023-04-22T09:32:56.566Z,4.95
2023-04-22T09:35:28.189Z,8.25
2023-04-22T09:37:56.649Z,3.47
2023-04-22T09:40:26.877Z,5.03
2023-04-22T09:42:56.407Z,5.60
2023-04-22T09:45:32.454Z,5.32
2023-04-22T09:48:04.461Z,4.53
2023-04-22T09:50:32.796Z,10.20
2023-04-22T09:53:02.755Z,9.80
2023-04-22T09:55:35.038Z,3.58
2023-04-22T09:58:08.894Z,6.00
2023-04-22T10:00:41.151Z,5.05
2023-04-22T10:03:10.784Z,3.80
2023-04-22T10:05:39.736Z,4.53
2023-04-22T10:08:09.617Z,3.25
2023-04-22T10:10:40.062Z,5.93
2023-04-22T10:13:08.673Z,4.75
2023-04-22T10:15:39.967Z,3.33
2023-04-22T10:18:11.201Z,4.78
2023-04-22T10:20:42.202Z,5.13
2023-04-22T10:23:16.475Z,5.35
2023-04-22T10:25:49.249Z,6.45
2023-04-22T10:28:18.811Z,4.90
2023-04-22T10:30:47.177Z,4.63
2023-04-22T10:33:39.238Z,5.13
2023-04-22T10:36:10.011Z,8.80
2023-04-22T10:38:38.833Z,5.05
2023-04-22T10:41:09.065Z,6.10
2023-04-22T10:43:45.323Z,2.92
2023-04-22T10:46:50.291Z,6.53
2023-04-22T10:49:21.813Z,7.03
2023-04-22T10:51:51.641Z,5.80
2023-04-22T10:54:57.719Z,7.65
2023-04-22T10:57:42.422Z,5.10
2023-04-22T11:00:45.865Z,4.18
2023-04-22T11:03:27.971Z,5.45
2023-04-22T11:06:14.835Z,3.92
2023-04-22T11:08:47.316Z,8.23
2023-04-22T11:11:17.716Z,6.45
2023-04-22T11:13:50.669Z,6.18
2023-04-22T11:16:22.528Z,3.45
2023-04-22T11:18:51.434Z,3.78
2023-04-22T11:21:19.688Z,7.30
2023-04-22T11:23:52.146Z,3.20
2023-04-22T11:26:33.738Z,2.83
2023-04-22T11:29:03.616Z,3.42
2023-04-22T11:31:31.949Z,4.25
2023-04-22T11:34:00.955Z,6.00
2023-04-22T11:36:29.341Z,4.55
2023-04-22T11:38:57.552Z,3.78
2023-04-22T11:41:25.810Z,3.55
2023-04-22T11:43:54.989Z,4.82
2023-04-22T11:46:38.491Z,3.83
2023-04-22T11:49:14.629Z,3.83
2023-04-22T11:51:56.484Z,6.53
2023-04-22T11:54:33.404Z,6.97
2023-04-22T11:57:04.001Z,5.65
2023-04-22T11:59:32.264Z,7.78
2023-04-22T12:02:01.860Z,3.80
2023-04-22T12:04:30.070Z,4.25
2023-04-22T12:07:10.823Z,4.90
2023-04-22T12:09:40.725Z,4.70
2023-04-22T12:12:09.661Z,4.35
2023-04-22T12:14:38.194Z,6.03
2023-04-22T12:17:06.789Z,3.13
2023-04-22T12:19:35.085Z,3.63
2023-04-22T12:22:03.292Z,5.78
2023-04-22T12:24:32.965Z,5.05
2023-04-22T12:27:01.326Z,3.92
2023-04-22T12:29:32.530Z,3.28
2023-04-22T12:32:01.904Z,2.78
2023-04-22T12:34:30.123Z,2.60
2023-04-22T12:36:58.421Z,5.55
2023-04-22T12:39:26.689Z,5.40
2023-04-22T12:41:56.226Z,3.03
2023-04-22T12:44:27.099Z,7.75
2023-04-22T12:46:55.429Z,4.82
2023-04-22T12:49:23.672Z,7.97
2023-04-22T12:51:54.282Z,9.48
2023-04-22T12:54:23.096Z,3.22
2023-04-22T12:56:51.410Z,6.70
2023-04-22T12:59:21.193Z,2.58
2023-04-22T13:01:51.396Z,3.33
2023-04-22T13:04:20.451Z,4.47
2023-04-22T13:06:50.612Z,5.55
2023-04-22T13:09:18.950Z,2.47
2023-04-22T13:11:49.325Z,6.22
2023-04-22T13:14:17.662Z,4.00
2023-04-22T13:16:47.318Z,3.53
2023-04-22T13:19:15.710Z,3.50
2023-04-22T13:21:45.115Z,3.00
2023-04-22T13:24:13.404Z,3.55
2023-04-22T13:26:41.582Z,5.63
2023-04-22T13:29:14.131Z,6.72
2023-04-22T13:31:44.113Z,3.38
2023-04-22T13:34:15.366Z,4.47
2023-04-22T13:36:43.693Z,2.95
2023-04-22T13:39:11.918Z,4.30
2023-04-22T13:41:40.237Z,7.43
2023-04-22T13:44:08.428Z,3.50
2023-04-22T13:46:36.627Z,7.72
2023-04-22T13:49:04.838Z,3.70
2023-04-22T13:51:34.581Z,2.45
2023-04-22T13:54:02.903Z,6.25
2023-04-22T13:56:31.172Z,4.43
2023-04-22T13:59:00.097Z,2.67
2023-04-22T14:01:28.984Z,2.67
2023-04-22T14:03:57.391Z,4.20
2023-04-22T14:06:25.745Z,2.83
2023-04-22T14:08:55.533Z,3.95
2023-04-22T14:11:23.796Z,3.80
2023-04-22T14:13:52.406Z,2.55
2023-04-22T14:16:20.808Z,3.85
2023-04-22T14:18:49.194Z,2.70
2023-04-22T14:21:17.478Z,4.30
2023-04-22T14:23:45.974Z,3.72
2023-04-22T14:26:15.575Z,5.95
2023-04-22T14:28:43.935Z,6.47
2023-04-22T14:31:12.311Z,19.50
2023-04-22T14:33:41.264Z,3.60
2023-04-22T14:36:09.633Z,3.88
2023-04-22T14:38:37.858Z,3.08
2023-04-22T14:41:06.454Z,3.28
2023-04-22T14:43:36.225Z,3.97
2023-04-22T14:46:04.758Z,4.88
2023-04-22T14:48:35.425Z,3.63
2023-04-22T14:51:03.844Z,6.35
2023-04-22T14:53:33.316Z,8.00
2023-04-22T14:56:01.656Z,12.02
2023-04-22T14:58:31.750Z,7.95
2023-04-22T15:01:01.802Z,20.10
2023-04-22T15:03:30.824Z,9.93
2023-04-22T15:05:59.230Z,9.38
2023-04-22T15:08:27.536Z,7.05
2023-04-22T15:10:55.875Z,5.22
2023-04-22T15:13:24.084Z,6.35
2023-04-22T15:15:52.687Z,6.63
2023-04-22T15:18:22.354Z,4.97
2023-04-22T15:20:50.595Z,5.47
2023-04-22T15:23:18.844Z,5.47
2023-04-22T15:25:47.332Z,3.60
2023-04-22T15:28:15.596Z,3.42
2023-04-22T15:30:44.053Z,5.43
2023-04-22T15:33:12.294Z,4.97
2023-04-22T15:35:43.276Z,3.97
2023-04-22T15:38:11.567Z,5.40
2023-04-22T15:40:39.906Z,3.30
2023-04-22T15:43:08.154Z,6.68
2023-04-22T15:45:36.487Z,4.47
2023-04-22T15:48:05.949Z,6.35
2023-04-22T15:50:34.313Z,8.32
2023-04-22T15:53:03.970Z,4.28
2023-04-22T15:55:32.257Z,4.63
2023-04-22T15:58:00.706Z,4.05
2023-04-22T16:00:29.099Z,5.68
2023-04-22T16:02:57.556Z,24.25
2023-04-22T16:05:26.410Z,7.78
2023-04-22T16:07:55.872Z,4.95
2023-04-22T16:10:26.989Z,5.10
2023-04-22T16:12:55.260Z,5.30
2023-04-22T16:15:25.961Z,4.05
2023-04-22T16:17:54.341Z,5.38
2023-04-22T16:20:22.808Z,6.05
2023-04-22T16:22:51.048Z,4.63
2023-04-22T16:25:19.548Z,3.97
2023-04-22T16:27:49.216Z,3.28
2023-04-22T16:30:17.758Z,5.85
2023-04-22T16:32:46.097Z,2.88
2023-04-22T16:35:14.476Z,3.40
2023-04-22T16:37:42.768Z,4.53
2023-04-22T16:40:11.514Z,17.45
2023-04-22T16:42:39.911Z,4.70
2023-04-22T16:45:10.146Z,5.95
2023-04-22T16:47:38.549Z,6.55
2023-04-22T16:50:10.444Z,8.90
2023-04-22T16:52:39.110Z,25.10
2023-04-22T16:55:08.734Z,7.65
2023-04-22T16:57:39.432Z,4.07
2023-04-22T17:00:10.455Z,4.93
2023-04-22T17:02:38.894Z,5.35
2023-04-22T17:05:07.772Z,3.20
2023-04-22T17:07:36.110Z,4.72
2023-04-22T17:10:05.053Z,4.22
2023-04-22T17:12:33.316Z,4.43
2023-04-22T17:15:01.558Z,3.55
2023-04-22T17:17:31.380Z,2.40
2023-04-22T17:19:59.861Z,4.57
2023-04-22T17:22:28.460Z,9.15
2023-04-22T17:24:58.775Z,57.80
2023-04-22T17:27:27.555Z,69.78
2023-04-22T17:29:55.788Z,50.97
2023-04-22T17:32:24.306Z,20.75
2023-04-22T17:34:54.359Z,49.35
2023-04-22T17:37:22.601Z,23.77
2023-04-22T17:39:51.056Z,39.65
2023-04-22T17:42:20.304Z,42.45
2023-04-22T17:44:49.875Z,24.55
2023-04-22T17:47:18.176Z,12.63
2023-04-22T17:49:46.437Z,8.05
2023-04-22T17:52:16.794Z,9.15
2023-04-22T17:54:44.984Z,9.50
2023-04-22T17:57:13.199Z,7.22
2023-04-22T17:59:41.581Z,4.13
2023-04-22T18:02:12.219Z,8.55
2023-04-22T18:04:41.891Z,4.07
2023-04-22T18:07:10.234Z,4.53
2023-04-22T18:09:40.097Z,4.20
2023-04-22T18:12:08.419Z,4.93
2023-04-22T18:14:36.804Z,2.95
2023-04-22T18:17:05.090Z,3.65
2023-04-22T18:19:33.370Z,3.60
2023-04-22T18:22:02.137Z,6.70
2023-04-22T18:24:30.694Z,3.38
2023-04-22T18:27:00.376Z,4.15
2023-04-22T18:29:28.662Z,3.20
2023-04-22T18:31:57.952Z,4.05
2023-04-22T18:34:26.510Z,3.05
2023-04-22T18:36:54.686Z,4.50
2023-04-22T18:39:22.939Z,6.47
2023-04-22T18:41:51.326Z,4.93
2023-04-22T18:44:21.644Z,6.50
2023-04-22T18:46:50.498Z,5.95
2023-04-22T18:49:18.886Z,3.65
2023-04-22T18:51:49.275Z,5.53
2023-04-22T18:54:17.535Z,5.85
2023-04-22T18:56:46.094Z,6.90
2023-04-22T18:59:14.501Z,2.90
2023-04-22T19:01:44.214Z,4.68
2023-04-22T19:04:12.974Z,5.85
2023-04-22T19:06:41.523Z,4.15
2023-04-22T19:09:09.736Z,5.28
2023-04-22T19:11:38.049Z,7.22
2023-04-22T19:14:06.351Z,4.82
2023-04-22T19:16:35.047Z,4.18
2023-04-22T19:19:04.861Z,5.28
2023-04-22T19:21:33.423Z,4.30
2023-04-22T19:24:01.632Z,7.00
2023-04-22T19:26:30.051Z,6.15
2023-04-22T19:28:58.279Z,8.23
2023-04-22T19:31:29.619Z,4.50
2023-04-22T19:33:58.114Z,8.60
2023-04-22T19:36:28.253Z,4.97
2023-04-22T19:38:56.503Z,6.63
2023-04-22T19:41:24.731Z,5.43
2023-04-22T19:43:53.023Z,4.85
2023-04-22T19:46:21.209Z,5.72
2023-04-22T19:48:50.197Z,7.65
2023-04-22T19:51:18.701Z,8.68
2023-04-22T19:53:48.949Z,8.20
2023-04-22T19:56:17.479Z,4.35
2023-04-22T19:58:46.074Z,6.78
2023-04-22T20:01:14.776Z,6.15
2023-04-22T20:03:43.799Z,7.90
2023-04-22T20:06:13.646Z,7.55
2023-04-22T20:08:43.327Z,5.78
2023-04-22T20:11:13.546Z,6.50
2023-04-22T20:13:42.375Z,8.55
2023-04-22T20:16:11.806Z,6.70
2023-04-22T20:18:40.384Z,7.90
2023-04-22T20:21:09.928Z,10.48
2023-04-22T20:23:39.134Z,9.20
2023-04-22T20:26:08.317Z,9.98
2023-04-22T20:28:45.168Z,7.15
2023-04-22T20:31:44.993Z,9.77
2023-04-22T20:34:13.502Z,12.45
2023-04-22T20:36:42.035Z,11.20
2023-04-22T20:39:14.735Z,12.07
2023-04-22T20:41:43.917Z,12.50
2023-04-22T20:44:14.243Z,13.50
2023-04-22T20:46:42.463Z,7.57
2023-04-22T20:49:10.721Z,12.05
2023-04-22T20:51:39.604Z,9.32
2023-04-22T20:54:17.788Z,10.02
2023-04-22T20:56:57.864Z,12.95
2023-04-22T20:59:27.758Z,11.73
2023-04-22T21:01:56.536Z,10.60
2023-04-22T21:04:25.603Z,10.40
2023-04-22T21:06:55.675Z,11.75
2023-04-22T21:09:25.955Z,8.90
2023-04-22T21:11:54.970Z,15.70
2023-04-22T21:14:26.299Z,9.45
2023-04-22T21:17:01.800Z,12.15
2023-04-22T21:19:33.034Z,10.60
2023-04-22T21:22:06.204Z,11.93
2023-04-22T21:24:35.991Z,12.65
2023-04-22T21:27:04.834Z,10.65
2023-04-22T21:29:34.112Z,14.77
2023-04-22T21:32:09.446Z,13.50
2023-04-22T21:34:38.230Z,13.82
2023-04-22T21:37:07.787Z,17.08
2023-04-22T21:39:36.313Z,17.67
2023-04-22T21:42:08.156Z,16.80
2023-04-22T21:44:37.574Z,22.85
2023-04-22T21:47:07.842Z,17.00
2023-04-22T21:49:36.076Z,20.40
2023-04-22T21:52:04.334Z,21.30
2023-04-22T21:54:32.627Z,19.02
2023-04-22T21:57:01.226Z,22.33
2023-04-22T21:59:29.416Z,19.48
2023-04-22T22:01:57.760Z,19.25
2023-04-22T22:04:27.545Z,17.17
2023-04-22T22:06:56.065Z,14.85
2023-04-22T22:09:24.292Z,23.25
2023-04-22T22:11:52.608Z,17.27
2023-04-22T22:14:20.885Z,16.33
2023-04-22T22:16:49.955Z,17.25
2023-04-22T22:19:18.312Z,17.77
2023-04-22T22:21:47.986Z,16.55
2023-04-22T22:24:16.297Z,18.88
2023-04-22T22:26:44.518Z,16.08
2023-04-22T22:29:15.650Z,18.83
2023-04-22T22:31:44.354Z,19.92
2023-04-22T22:34:12.982Z,22.23
2023-04-22T22:36:41.323Z,19.08
2023-04-22T22:39:14.469Z,15.43
2023-04-22T22:41:43.967Z,17.38
2023-04-22T22:44:12.429Z,15.18
2023-04-22T22:46:41.422Z,16.48
2023-04-22T22:49:09.992Z,16.58
2023-04-22T22:51:38.487Z,18.45
2023-04-22T22:54:07.058Z,18.27
2023-04-22T22:56:36.843Z,23.33
2023-04-22T22:59:05.059Z,25.15
2023-04-22T23:01:33.484Z,22.33
2023-04-22T23:04:01.914Z,18.42
2023-04-22T23:06:31.906Z,24.58
2023-04-22T23:09:00.694Z,21.23
2023-04-22T23:11:28.871Z,19.88
2023-04-22T23:13:58.413Z,17.35
2023-04-22T23:16:27.169Z,17.90
2023-04-22T23:18:56.839Z,19.23
2023-04-22T23:21:25.298Z,21.70
2023-04-22T23:23:56.101Z,19.40
2023-04-22T23:26:24.754Z,19.63
2023-04-22T23:28:53.326Z,22.13
2023-04-22T23:31:24.266Z,22.88
2023-04-22T23:33:55.743Z,22.25
2023-04-22T23:36:25.602Z,22.50
2023-04-22T23:38:56.662Z,21.90
2023-04-22T23:41:26.248Z,22.45
2023-04-22T23:43:54.444Z,20.45
2023-04-22T23:46:24.206Z,24.90
2023-04-22T23:48:52.556Z,28.35
2023-04-22T23:51:20.904Z,24.38
2023-04-22T23:53:49.064Z,26.30
2023-04-22T23:56:21.110Z,23.42
2023-04-22T23:58:50.065Z,20.85
